createdAt,value
2023-01-26T00:04:25.188Z,84.11
2023-01-26T00:09:47.040Z,84.00
2023-01-26T00:15:08.884Z,85.17
2023-01-26T00:20:30.642Z,85.48
2023-01-26T00:25:52.471Z,85.56
2023-01-26T00:31:19.495Z,84.97
2023-01-26T00:36:41.303Z,84.63
2023-01-26T00:42:13.801Z,84.66
2023-01-26T00:47:35.521Z,84.67
2023-01-26T00:52:57.319Z,84.83
2023-01-26T00:58:19.032Z,84.78
2023-01-26T01:03:40.778Z,84.14
2023-01-26T01:09:03.114Z,84.49
2023-01-26T01:14:25.111Z,84.86
2023-01-26T01:19:46.812Z,85.19
2023-01-26T01:25:08.949Z,85.58
2023-01-26T01:30:30.685Z,85.24
2023-01-26T01:36:03.460Z,85.37
2023-01-26T01:41:25.247Z,86.15
2023-01-26T01:47:02.322Z,86.53
2023-01-26T01:52:31.720Z,85.95
2023-01-26T01:57:58.757Z,86.77
2023-01-26T02:03:21.283Z,85.84
2023-01-26T02:08:42.968Z,84.93
2023-01-26T02:14:08.779Z,87.31
2023-01-26T02:19:46.060Z,87.54
2023-01-26T02:25:19.233Z,87.07
2023-01-26T02:30:40.975Z,87.57
2023-01-26T02:36:03.583Z,87.93
2023-01-26T02:41:44.655Z,88.21
2023-01-26T02:47:18.833Z,87.79
2023-01-26T02:52:40.644Z,89.15
2023-01-26T02:58:04.553Z,89.00
2023-01-26T03:03:41.684Z,89.56
2023-01-26T03:09:03.643Z,89.31
2023-01-26T03:14:25.344Z,89.38
2023-01-26T03:20:05.824Z,89.63
2023-01-26T03:25:45.933Z,88.59
2023-01-26T03:31:07.760Z,88.60
2023-01-26T03:36:29.466Z,89.15
2023-01-26T03:42:09.919Z,88.49
2023-01-26T03:47:51.782Z,89.88
2023-01-26T03:53:42.818Z,89.93
2023-01-26T03:59:12.277Z,90.31
2023-01-26T04:04:52.971Z,90.91
2023-01-26T04:10:15.037Z,90.54
2023-01-26T04:15:56.149Z,90.38
2023-01-26T04:21:26.701Z,89.71
2023-01-26T04:26:48.752Z,89.48
2023-01-26T04:32:10.515Z,88.47
2023-01-26T04:37:33.224Z,87.69
2023-01-26T04:42:54.930Z,88.43
2023-01-26T04:48:16.668Z,88.67
2023-01-26T04:53:38.441Z,89.62
2023-01-26T04:59:02.792Z,90.66
2023-01-26T05:04:24.589Z,89.12
2023-01-26T05:09:46.403Z,90.29
2023-01-26T05:15:08.421Z,91.22
2023-01-26T05:20:30.160Z,90.12
2023-01-26T05:25:51.936Z,91.41
2023-01-26T05:31:13.619Z,91.00
2023-01-26T05:36:35.329Z,90.06
2023-01-26T05:41:57.165Z,89.64
2023-01-26T05:47:19.785Z,90.25
2023-01-26T05:52:42.886Z,89.27
2023-01-26T05:58:04.586Z,88.69
2023-01-26T06:03:26.329Z,88.12
2023-01-26T06:08:48.023Z,87.44
2023-01-26T06:14:09.875Z,89.04
2023-01-26T06:19:31.683Z,89.20
2023-01-26T06:24:53.382Z,89.65
2023-01-26T06:30:15.834Z,89.19
2023-01-26T06:35:37.555Z,89.60
2023-01-26T06:41:03.075Z,88.58
2023-01-26T06:46:24.935Z,88.25
2023-01-26T06:51:50.380Z,88.62
2023-01-26T06:57:12.152Z,88.24
2023-01-26T07:02:34.054Z,88.98
2023-01-26T07:07:55.867Z,88.60
2023-01-26T07:13:17.627Z,87.58
2023-01-26T07:18:39.381Z,88.42
2023-01-26T07:24:01.188Z,88.06
2023-01-26T07:29:22.991Z,87.71
2023-01-26T07:34:44.699Z,89.25
2023-01-26T07:40:07.288Z,87.82
2023-01-26T07:45:29.039Z,86.23
2023-01-26T07:50:51.334Z,86.84
2023-01-26T07:56:16.548Z,86.33
2023-01-26T08:01:39.433Z,86.25
2023-01-26T08:07:01.409Z,85.62
2023-01-26T08:12:23.216Z,86.11
2023-01-26T08:17:44.942Z,85.71
2023-01-26T08:23:06.689Z,84.57
2023-01-26T08:28:28.872Z,84.89
2023-01-26T08:33:52.015Z,84.49
2023-01-26T08:39:13.798Z,83.10
2023-01-26T08:44:35.542Z,82.41
2023-01-26T08:49:57.279Z,82.47
2023-01-26T08:55:19.058Z,81.64
2023-01-26T09:00:40.804Z,80.86
2023-01-26T09:06:04.394Z,81.88
2023-01-26T09:11:26.210Z,81.68
2023-01-26T09:16:48.219Z,81.32
2023-01-26T09:22:10.019Z,80.69
2023-01-26T09:27:31.852Z,80.82
2023-01-26T09:32:58.643Z,81.04
2023-01-26T09:38:20.366Z,79.88
2023-01-26T09:43:50.489Z,79.56
2023-01-26T09:49:21.555Z,79.19
2023-01-26T09:54:49.432Z,79.19
2023-01-26T10:00:25.877Z,79.31
2023-01-26T10:06:07.494Z,79.36
2023-01-26T10:11:38.108Z,78.96
2023-01-26T10:17:02.814Z,78.59
2023-01-26T10:22:33.937Z,78.50
2023-01-26T10:27:55.768Z,78.30
2023-01-26T10:33:54.497Z,76.42
2023-01-26T10:39:17.802Z,76.99
2023-01-26T10:44:40.209Z,76.57
2023-01-26T10:50:23.161Z,74.99
2023-01-26T10:55:58.988Z,74.53
2023-01-26T11:01:28.198Z,75.16
2023-01-26T11:06:49.967Z,75.44
2023-01-26T11:12:19.162Z,76.55
2023-01-26T11:17:49.255Z,76.82
2023-01-26T11:23:24.608Z,75.98
2023-01-26T11:29:07.881Z,78.78
2023-01-26T11:34:41.400Z,79.47
2023-01-26T11:40:23.424Z,77.91
2023-01-26T11:45:50.919Z,78.66
2023-01-26T11:51:49.520Z,79.40
2023-01-26T11:57:37.327Z,79.58
2023-01-26T12:03:05.210Z,76.81
2023-01-26T12:08:39.376Z,77.40
2023-01-26T12:14:25.623Z,78.37
2023-01-26T12:20:11.441Z,77.40
2023-01-26T12:25:33.564Z,76.74
2023-01-26T12:31:14.311Z,76.52
2023-01-26T12:36:46.662Z,77.79
2023-01-26T12:42:29.754Z,77.57
2023-01-26T12:47:55.796Z,77.80
2023-01-26T12:53:47.990Z,78.32
2023-01-26T12:59:38.909Z,78.72
2023-01-26T13:05:00.128Z,78.81
2023-01-26T13:10:27.745Z,79.11
2023-01-26T13:16:15.588Z,78.67
2023-01-26T13:21:40.166Z,78.74
2023-01-26T13:27:01.931Z,79.73
2023-01-26T13:32:23.670Z,78.19
2023-01-26T13:37:53.258Z,79.06
2023-01-26T13:43:36.307Z,77.98
2023-01-26T13:48:58.069Z,78.79
2023-01-26T13:54:20.959Z,78.54
2023-01-26T13:59:54.729Z,78.31
2023-01-26T14:05:22.497Z,77.27
2023-01-26T14:10:44.287Z,79.08
2023-01-26T14:16:07.538Z,79.88
2023-01-26T14:21:29.384Z,78.87
2023-01-26T14:26:51.157Z,79.74
2023-01-26T14:32:16.448Z,78.82
2023-01-26T14:37:38.188Z,79.47
2023-01-26T14:43:00.214Z,78.87
2023-01-26T14:48:34.729Z,78.16
2023-01-26T14:54:18.878Z,76.80
2023-01-26T14:59:41.167Z,77.22
2023-01-26T15:05:14.264Z,77.71
2023-01-26T15:10:52.732Z,77.06
2023-01-26T15:16:20.109Z,76.37
2023-01-26T15:21:43.699Z,78.68
2023-01-26T15:27:06.734Z,77.92
2023-01-26T15:32:37.513Z,77.74
2023-01-26T15:38:11.612Z,78.01
2023-01-26T15:43:33.304Z,78.77
2023-01-26T15:48:55.891Z,79.69
2023-01-26T15:54:17.608Z,78.83
2023-01-26T15:59:40.180Z,79.84
2023-01-26T16:05:01.872Z,78.94
2023-01-26T16:10:23.623Z,78.05
2023-01-26T16:15:51.317Z,79.50
2023-01-26T16:21:20.162Z,80.34
2023-01-26T16:26:41.984Z,79.38
2023-01-26T16:32:16.126Z,79.70
2023-01-26T16:37:37.926Z,80.01
2023-01-26T16:43:01.467Z,78.02
2023-01-26T16:48:23.862Z,77.57
2023-01-26T16:53:46.600Z,78.16
2023-01-26T16:59:08.298Z,79.00
2023-01-26T17:04:30.034Z,79.96
2023-01-26T17:09:51.801Z,81.27
2023-01-26T17:15:14.034Z,82.23
2023-01-26T17:20:35.955Z,83.24
2023-01-26T17:25:59.375Z,82.76
2023-01-26T17:31:23.365Z,83.33
2023-01-26T17:36:46.126Z,83.43
2023-01-26T17:42:07.938Z,83.26
2023-01-26T17:47:33.509Z,82.29
2023-01-26T17:52:55.300Z,83.06
2023-01-26T17:58:17.040Z,83.64
2023-01-26T18:03:42.845Z,83.35
2023-01-26T18:09:05.807Z,82.64
2023-01-26T18:14:27.566Z,82.48
2023-01-26T18:19:49.308Z,82.19
2023-01-26T18:25:11.717Z,82.37
2023-01-26T18:30:33.746Z,83.67
2023-01-26T18:36:06.231Z,84.19
2023-01-26T18:41:30.575Z,84.63
2023-01-26T18:46:52.376Z,83.17
2023-01-26T18:52:14.074Z,83.90
2023-01-26T18:57:35.884Z,84.95
2023-01-26T19:02:57.595Z,84.12
2023-01-26T19:08:22.605Z,85.41
2023-01-26T19:13:46.469Z,84.89
2023-01-26T19:19:10.867Z,85.50
2023-01-26T19:24:32.677Z,85.80
2023-01-26T19:29:54.497Z,87.76
2023-01-26T19:35:18.198Z,87.34
2023-01-26T19:40:40.089Z,85.52
2023-01-26T19:46:02.647Z,85.74
2023-01-26T19:51:26.636Z,84.77
2023-01-26T19:56:48.389Z,84.33
2023-01-26T20:02:10.422Z,85.22
2023-01-26T20:07:32.242Z,83.92
2023-01-26T20:12:54.120Z,84.63
2023-01-26T20:18:15.883Z,84.96
2023-01-26T20:23:41.277Z,83.77
2023-01-26T20:29:11.976Z,83.77
2023-01-26T20:34:33.797Z,83.48
2023-01-26T20:39:55.673Z,84.36
2023-01-26T20:45:17.984Z,84.72
2023-01-26T20:50:40.717Z,84.53
2023-01-26T20:56:02.521Z,83.24
2023-01-26T21:01:25.387Z,83.77
2023-01-26T21:06:50.138Z,83.99
2023-01-26T21:12:12.384Z,84.14
2023-01-26T21:17:37.128Z,83.00
2023-01-26T21:22:59.616Z,83.70
2023-01-26T21:28:21.460Z,84.62
2023-01-26T21:33:45.906Z,83.73
2023-01-26T21:39:10.853Z,84.25
2023-01-26T21:44:33.219Z,84.53
2023-01-26T21:49:56.136Z,84.04
2023-01-26T21:55:20.151Z,83.31
2023-01-26T22:00:43.145Z,82.07
2023-01-26T22:06:05.554Z,82.13
2023-01-26T22:11:27.810Z,82.20
2023-01-26T22:16:50.079Z,82.44
2023-01-26T22:22:12.603Z,81.48
2023-01-26T22:27:34.382Z,82.05
2023-01-26T22:32:56.087Z,81.95
2023-01-26T22:38:18.225Z,82.01
2023-01-26T22:43:39.953Z,81.99
2023-01-26T22:49:04.443Z,80.91
2023-01-26T22:54:27.074Z,80.58
2023-01-26T22:59:49.322Z,80.60
2023-01-26T23:05:11.127Z,80.23
2023-01-26T23:10:32.973Z,80.68
2023-01-26T23:15:54.735Z,80.55
2023-01-26T23:21:16.500Z,80.27
2023-01-26T23:26:38.458Z,79.82
2023-01-26T23:32:00.237Z,79.89
2023-01-26T23:37:22.015Z,79.56
2023-01-26T23:43:00.250Z,79.81
2023-01-26T23:48:26.103Z,79.29
2023-01-26T23:53:47.865Z,78.79
2023-01-26T23:59:09.571Z,80.00
